Terminal Aerodrome Forecast
Issued by NWS Mt. Holly, NJ

Home | Current Version | Previous Version | Text Only | Print | Product List | Glossary On
Versions: 1 2 3 4 5 6 7 8 9 10 11 12 13 14 15 16 17 18 19 20 21 22 23 24 25 26 27 28 29 30 31 32 33 34 35 36 37 38 39 40 41 42 43 44 45 46 47 48 49 50
000
FTUS41 KPHI 310000 AAA
TAFABE
TAF AMD
KABE 310058Z 3101/3124 18006KT P6SM OVC030
     FM310600 18004KT P6SM BKN015 OVC030
     FM310900 VRB03KT 4SM BR BKN007 OVC015
     FM311400 22006KT P6SM BKN020 BKN100
     FM311600 23007G16KT P6SM VCSH BKN035 BKN100
     FM312200 23008KT 6SM SHRA SCT025 BKN035=

USA.gov is the U.S. government's official web portal to all federal, state and local government web resources and services.